Time;durP1;ratioP1;P1;durP2;ratioP2;P2;SDS_P1;SDS_P2;PMS_P1;PMS_P2;Temp;Humidity;BMP_temperature;BMP_pressure;BME280_temperature;BME280_humidity;BME280_pressure;Samples;Min_cycle;Max_cycle;Signal;HPM_P1;HPM_P2
2022/08/25 00:00:12;;;;;;;;;13.00;12.25;;;;;28.79;36.79;100705.22;5056380;28;45660;-80
2022/08/25 00:02:38;;;;;;;;;16.75;14.25;;;;;28.81;36.47;100711.22;5056289;28;45899;-81
2022/08/25 00:05:04;;;;;;;;;14.25;13.25;;;;;28.62;36.99;100682.56;5056588;28;46448;-81
2022/08/25 00:07:30;;;;;;;;;14.50;12.50;;;;;28.64;36.72;100693.97;5057407;28;46002;-81
2022/08/25 00:09:55;;;;;;;;;13.25;12.25;;;;;28.71;37.02;100711.72;5058398;28;45467;-80
2022/08/25 00:12:20;;;;;;;;;13.75;13.00;;;;;28.68;37.10;100714.84;5058336;28;45689;-80
2022/08/25 00:14:46;;;;;;;;;13.75;12.50;;;;;28.55;36.82;100706.94;5057006;28;46375;-83
2022/08/25 00:17:13;;;;;;;;;15.75;14.50;;;;;28.59;37.29;100710.81;5056106;28;46058;-81
2022/08/25 00:19:39;;;;;;;;;12.50;11.75;;;;;28.54;36.72;100710.66;5038225;28;45585;-81
2022/08/25 00:25:27;;;;;;;;;14.25;13.25;;;;;28.36;37.21;100692.59;5050313;28;45725;-80
2022/08/25 00:27:52;;;;;;;;;11.50;11.50;;;;;28.41;37.50;100702.72;5037529;28;47261;-81
2022/08/25 00:30:21;;;;;;;;;13.25;13.25;;;;;28.28;37.13;100686.69;5055859;28;45561;-81
2022/08/25 00:32:48;;;;;;;;;16.75;14.75;;;;;28.31;37.12;100694.31;5056052;28;45898;-81
2022/08/25 00:35:13;;;;;;;;;13.75;13.25;;;;;28.29;37.83;100696.41;5056068;28;46482;-80
2022/08/25 00:37:39;;;;;;;;;14.00;14.00;;;;;28.23;37.43;100694.63;5055440;28;45896;-81
2022/08/25 00:40:05;;;;;;;;;12.75;12.75;;;;;28.18;37.39;100689.88;5055633;28;45522;-80
2022/08/25 00:42:31;;;;;;;;;14.00;12.25;;;;;28.20;37.89;100687.78;5056005;28;45643;-80
2022/08/25 00:44:57;;;;;;;;;13.25;13.00;;;;;28.17;37.67;100682.03;5056650;28;46317;-80
2022/08/25 00:47:23;;;;;;;;;13.50;12.50;;;;;28.05;37.43;100663.03;5037982;28;46215;-80
2022/08/25 00:49:53;;;;;;;;;13.75;13.00;;;;;28.09;37.55;100671.47;5056641;28;45670;-81
2022/08/25 00:55:40;;;;;;;;;11.50;11.25;;;;;28.11;38.13;100674.78;5056381;28;46041;-81
2022/08/25 00:58:17;;;;;;;;;14.50;13.50;;;;;28.04;38.18;100665.94;5056238;28;47101;-83
2022/08/25 01:00:48;;;;;;;;;15.00;13.75;;;;;28.09;37.98;100676.88;5052449;28;46011;-84
2022/08/25 01:03:14;;;;;;;;;14.75;13.75;;;;;28.03;38.19;100670.50;5071346;28;45537;-82
2022/08/25 01:05:42;;;;;;;;;16.00;15.25;;;;;27.93;38.30;100662.94;5063267;28;47514;-85
2022/08/25 01:08:08;;;;;;;;;12.25;12.00;;;;;28.04;38.39;100676.72;5057949;28;46355;-83
2022/08/25 01:10:36;;;;;;;;;12.75;12.25;;;;;28.01;38.35;100669.91;5057096;28;45679;-83
2022/08/25 01:13:09;;;;;;;;;15.25;14.00;;;;;28.02;38.64;100668.06;5058252;28;45555;-85
2022/08/25 01:15:35;;;;;;;;;16.00;15.00;;;;;28.05;38.94;100678.38;5058735;28;45635;-84
2022/08/25 01:18:00;;;;;;;;;13.00;12.50;;;;;28.03;38.75;100667.81;5059023;28;45498;-84
2022/08/25 01:20:28;;;;;;;;;16.00;14.00;;;;;28.06;38.75;100675.47;5060074;28;45527;-84
2022/08/25 01:22:55;;;;;;;;;14.75;12.00;;;;;28.02;38.75;100662.66;5059582;28;45586;-83
2022/08/25 01:25:32;;;;;;;;;13.25;12.50;;;;;28.10;38.34;100681.22;5051497;28;45690;-84
2022/08/25 01:27:58;;;;;;;;;14.00;12.75;;;;;27.95;38.36;100658.16;5020040;28;48375;-84
2022/08/25 01:30:24;;;;;;;;;11.25;11.00;;;;;28.10;38.70;100682.06;5041962;28;45572;-83
2022/08/25 01:32:49;;;;;;;;;14.00;13.25;;;;;28.12;38.66;100674.63;5038486;28;45722;-83
2022/08/25 01:35:15;;;;;;;;;10.75;10.25;;;;;28.10;38.09;100668.56;5037390;28;46391;-83
2022/08/25 01:41:02;;;;;;;;;9.75;9.75;;;;;28.10;38.60;100675.84;5039977;28;45604;-82
2022/08/25 01:43:36;;;;;;;;;14.00;13.00;;;;;27.95;38.10;100658.16;5037626;28;45578;-80
2022/08/25 01:46:01;;;;;;;;;12.00;11.00;;;;;28.11;37.61;100675.63;5035888;28;45704;-84
2022/08/25 01:48:27;;;;;;;;;10.75;10.75;;;;;28.01;37.22;100656.44;5035686;28;45721;-82
2022/08/25 01:50:52;;;;;;;;;9.75;9.75;;;;;27.93;37.62;100640.56;5035910;28;45616;-81
2022/08/25 01:53:21;;;;;;;;;8.25;8.25;;;;;28.10;37.52;100665.06;5036970;28;45686;-84
2022/08/25 01:56:00;;;;;;;;;11.00;10.25;;;;;28.01;37.22;100653.75;5036791;28;45531;-80
2022/08/25 01:58:32;;;;;;;;;10.50;10.50;;;;;28.09;37.32;100664.22;5034466;28;46078;-80
2022/08/25 02:01:01;;;;;;;;;9.75;9.25;;;;;28.00;36.88;100653.97;5034874;28;45508;-79
2022/08/25 02:03:27;;;;;;;;;9.50;9.50;;;;;28.06;36.86;100659.28;5034835;28;45688;-79
2022/08/25 02:05:53;;;;;;;;;10.25;10.25;;;;;28.09;36.67;100652.63;5033322;28;46457;-80
2022/08/25 02:08:20;;;;;;;;;8.00;8.00;;;;;28.06;36.67;100651.22;5034346;28;45677;-80
2022/08/25 02:10:45;;;;;;;;;8.75;8.25;;;;;28.05;36.73;100656.81;5034079;28;45623;-79
2022/08/25 02:13:11;;;;;;;;;8.75;8.75;;;;;28.02;37.11;100647.28;5034811;28;45690;-79
2022/08/25 02:15:43;;;;;;;;;9.25;9.25;;;;;28.00;37.15;100643.19;5034882;28;46638;-81
2022/08/25 02:18:09;;;;;;;;;10.00;10.00;;;;;27.92;37.05;100622.72;5034815;28;45922;-80
2022/08/25 02:20:35;;;;;;;;;8.00;8.00;;;;;27.95;36.91;100633.91;5035280;28;45531;-78
2022/08/25 02:26:22;;;;;;;;;12.75;11.25;;;;;27.89;36.62;100636.66;5048628;28;45577;-79
2022/08/25 02:28:50;;;;;;;;;11.25;10.25;;;;;27.86;36.49;100635.22;5054092;28;45671;-80
2022/08/25 02:31:16;;;;;;;;;10.25;10.25;;;;;27.85;36.82;100630.91;5054338;28;45513;-79
2022/08/25 02:33:42;;;;;;;;;11.00;10.25;;;;;27.82;36.76;100617.03;5054177;28;45463;-80
2022/08/25 02:36:08;;;;;;;;;10.00;10.00;;;;;27.75;36.80;100611.69;5054107;28;46536;-80
2022/08/25 02:38:33;;;;;;;;;11.25;11.25;;;;;27.79;36.58;100621.00;5053831;28;46425;-79
2022/08/25 02:40:59;;;;;;;;;11.75;11.75;;;;;27.74;37.16;100611.94;5054143;28;45550;-80
2022/08/25 02:43:26;;;;;;;;;12.50;11.00;;;;;27.74;37.18;100612.78;5054157;28;45508;-80
2022/08/25 02:45:54;;;;;;;;;12.75;12.50;;;;;27.70;37.38;100605.34;5053966;28;45796;-80
2022/08/25 02:48:20;;;;;;;;;14.25;12.25;;;;;27.72;38.08;100603.25;5054282;28;46031;-79
2022/08/25 02:50:51;;;;;;;;;15.00;15.00;;;;;27.73;37.60;100607.59;5054630;28;45791;-79
2022/08/25 02:56:39;;;;;;;;;14.00;13.25;;;;;27.62;37.72;100581.41;5053217;28;45593;-78
2022/08/25 02:59:04;;;;;;;;;12.75;12.75;;;;;27.65;37.63;100599.78;5054075;28;45960;-79
2022/08/25 03:01:31;;;;;;;;;12.50;11.50;;;;;27.64;37.72;100590.88;5054513;28;45593;-79
2022/08/25 03:03:56;;;;;;;;;13.25;13.25;;;;;27.62;38.00;100593.00;5054859;28;45741;-80
2022/08/25 03:06:23;;;;;;;;;13.00;12.50;;;;;27.61;37.79;100591.34;5057032;28;46622;-83
2022/08/25 03:08:50;;;;;;;;;14.00;13.00;;;;;27.61;38.04;100593.19;5058372;28;45580;-79
2022/08/25 03:11:16;;;;;;;;;13.25;12.25;;;;;27.49;38.10;100576.91;5057727;28;45836;-79
2022/08/25 03:13:42;;;;;;;;;12.25;12.25;;;;;27.60;38.01;100607.69;5056171;28;45544;-77
2022/08/25 03:16:07;;;;;;;;;11.25;10.50;;;;;27.50;38.11;100597.44;5056267;28;46837;-78
2022/08/25 03:18:34;;;;;;;;;11.50;10.75;;;;;27.57;37.44;100597.38;5057526;28;45859;-79
2022/08/25 03:20:59;;;;;;;;;13.25;12.25;;;;;27.55;38.17;100595.72;5057659;28;45634;-79
2022/08/25 03:26:52;;;;;;;;;12.50;12.25;;;;;27.49;37.88;100576.91;5055758;28;45594;-80
2022/08/25 03:29:22;;;;;;;;;11.00;10.50;;;;;27.52;37.61;100585.41;5056724;28;45541;-78
2022/08/25 03:31:48;;;;;;;;;12.50;12.25;;;;;27.43;38.08;100564.31;5056604;28;45539;-79
2022/08/25 03:34:15;;;;;;;;;11.75;11.50;;;;;27.49;37.68;100574.22;5057373;28;45731;-81
2022/08/25 03:36:42;;;;;;;;;12.25;12.25;;;;;27.49;37.63;100566.97;5058993;28;47143;-83
2022/08/25 03:39:08;;;;;;;;;13.25;13.25;;;;;27.49;38.31;100560.75;5062332;28;45699;-82
2022/08/25 03:41:34;;;;;;;;;11.00;11.00;;;;;27.48;38.25;100559.94;5063247;28;45529;-83
2022/08/25 03:44:02;;;;;;;;;12.75;12.00;;;;;27.44;38.19;100547.97;5064084;28;45621;-84
2022/08/25 03:46:33;;;;;;;;;14.00;13.00;;;;;27.48;38.05;100554.53;5065746;28;45493;-82
2022/08/25 03:49:00;;;;;;;;;12.75;12.00;;;;;27.48;38.03;100556.41;5065063;28;46147;-83
2022/08/25 03:51:29;;;;;;;;;13.50;13.50;;;;;27.45;37.88;100544.22;5059707;28;45596;-83
2022/08/25 03:53:56;;;;;;;;;12.75;12.75;;;;;27.47;37.51;100549.41;5057109;28;45572;-84
2022/08/25 03:56:21;;;;;;;;;11.25;10.00;;;;;27.45;38.11;100555.00;5056952;28;46226;-85
2022/08/25 03:58:47;;;;;;;;;13.00;12.75;;;;;27.38;38.23;100546.16;5057096;28;46078;-84
2022/08/25 04:01:13;;;;;;;;;13.75;12.00;;;;;27.43;37.52;100557.06;5056822;28;46007;-84
2022/08/25 04:03:39;;;;;;;;;12.25;11.75;;;;;27.41;37.53;100563.75;5056725;28;45618;-84
2022/08/25 04:06:05;;;;;;;;;12.00;11.00;;;;;27.38;37.12;100567.69;5056428;28;45747;-84
2022/08/25 04:11:53;;;;;;;;;12.75;12.00;;;;;27.34;37.60;100576.41;5062244;28;45613;-84
2022/08/25 04:14:20;;;;;;;;;13.50;13.25;;;;;27.31;37.75;100575.00;5062681;28;45700;-85
2022/08/25 04:16:45;;;;;;;;;12.50;10.75;;;;;27.29;37.81;100569.00;5060867;28;46573;-85
2022/08/25 04:19:11;;;;;;;;;11.75;11.75;;;;;27.25;37.59;100573.19;5056724;28;46458;-86
2022/08/25 04:21:39;;;;;;;;;12.75;11.00;;;;;27.23;37.72;100572.56;5038016;28;45518;-85
2022/08/25 04:24:07;;;;;;;;;14.50;13.75;;;;;27.19;37.71;100568.66;5056610;28;45434;-80
2022/08/25 04:26:36;;;;;;;;;12.75;11.50;;;;;27.18;37.46;100577.78;5055741;28;46509;-84
2022/08/25 04:29:04;;;;;;;;;12.25;11.75;;;;;27.11;38.05;100574.31;5057803;28;46353;-82
2022/08/25 04:31:30;;;;;;;;;10.25;10.25;;;;;27.14;38.22;100579.28;5058619;28;45503;-84
2022/08/25 04:33:57;;;;;;;;;12.25;11.00;;;;;27.14;37.66;100580.09;5040495;28;45601;-84
2022/08/25 04:36:23;;;;;;;;;12.00;11.00;;;;;27.13;37.95;100581.13;5056416;28;45719;-85
2022/08/25 04:42:10;;;;;;;;;12.00;11.00;;;;;27.06;37.36;100580.34;5056008;28;45526;-84
2022/08/25 04:44:35;;;;;;;;;13.50;10.75;;;;;27.05;37.10;100591.31;5056360;28;45872;-83
2022/08/25 04:47:01;;;;;;;;;11.50;11.00;;;;;27.03;38.11;100593.41;5055539;28;45628;-84
2022/08/25 04:49:27;;;;;;;;;14.25;12.75;;;;;27.02;37.72;100595.28;5055880;28;46311;-83
2022/08/25 04:51:52;;;;;;;;;11.50;11.50;;;;;27.01;37.10;100600.84;5055917;28;45703;-84
2022/08/25 04:54:21;;;;;;;;;11.75;10.25;;;;;26.98;37.61;100595.94;5057557;28;45584;-85
2022/08/25 04:56:49;;;;;;;;;12.00;11.50;;;;;26.97;37.55;100595.09;5064058;28;46469;-85
2022/08/25 04:59:16;;;;;;;;;12.00;11.75;;;;;26.93;37.66;100591.19;5056210;28;47414;-84
2022/08/25 05:01:45;;;;;;;;;11.25;11.25;;;;;26.99;37.74;100602.97;5057430;28;45736;-83
2022/08/25 05:04:13;;;;;;;;;11.00;11.00;;;;;26.94;37.32;100598.19;5055410;28;45584;-84
2022/08/25 05:06:39;;;;;;;;;11.50;11.00;;;;;26.95;37.63;100616.00;5055240;28;45651;-85
2022/08/25 05:12:27;;;;;;;;;11.00;10.75;;;;;26.90;37.61;100626.56;5065058;28;45285;-83
2022/08/25 05:14:52;;;;;;;;;10.00;10.00;;;;;26.90;37.46;100628.44;5067377;28;45739;-83
2022/08/25 05:17:18;;;;;;;;;12.50;12.00;;;;;26.85;37.78;100617.47;5070934;28;46311;-82
2022/08/25 05:19:43;;;;;;;;;11.00;11.00;;;;;26.93;37.57;100636.09;5074746;28;45488;-82
2022/08/25 05:22:09;;;;;;;;;14.00;12.00;;;;;26.91;37.40;100636.31;5052021;28;45560;-83
2022/08/25 05:24:34;;;;;;;;;11.75;11.00;;;;;26.85;38.02;100629.06;5071733;28;45407;-81
2022/08/25 05:27:02;;;;;;;;;11.00;11.00;;;;;26.88;38.23;100635.91;5052028;28;47491;-82
2022/08/25 05:29:28;;;;;;;;;8.00;8.00;;;;;26.89;38.07;100635.69;5063052;28;46171;-78
2022/08/25 05:31:54;;;;;;;;;12.00;10.50;;;;;26.90;38.11;100644.56;5062571;28;45793;-84
2022/08/25 05:34:20;;;;;;;;;12.25;11.75;;;;;26.86;38.02;100636.09;5063341;28;45522;-82
2022/08/25 05:36:47;;;;;;;;;13.00;12.00;;;;;26.91;37.74;100641.69;5061656;28;47620;-81
2022/08/25 05:42:36;;;;;;;;;13.50;12.75;;;;;26.80;37.89;100615.44;5063778;28;45673;-80
2022/08/25 05:45:02;;;;;;;;;14.00;12.00;;;;;26.85;37.82;100630.91;5046839;28;45453;-80
2022/08/25 05:47:27;;;;;;;;;13.00;12.00;;;;;26.88;38.01;100642.13;5055838;28;47468;-80
2022/08/25 05:49:53;;;;;;;;;12.50;11.50;;;;;26.84;37.90;100634.63;5057005;28;46298;-81
2022/08/25 05:52:20;;;;;;;;;11.75;10.75;;;;;26.87;38.15;100637.78;5056225;28;45514;-78
2022/08/25 05:54:45;;;;;;;;;12.25;11.25;;;;;26.84;38.30;100631.94;5055768;28;45463;-80
2022/08/25 05:57:11;;;;;;;;;11.50;11.00;;;;;26.83;38.58;100627.63;5057741;28;45548;-85
2022/08/25 05:59:36;;;;;;;;;17.00;16.75;;;;;26.89;39.40;100637.53;5058036;28;46196;-81
2022/08/25 06:04:46;;;;;;;;;13.00;13.00;;;;;26.90;39.35;100633.81;5057341;28;45663;-82
2022/08/25 06:07:12;;;;;;;;;16.00;15.00;;;;;26.90;39.42;100637.34;5075073;28;46393;-83
2022/08/25 06:12:59;;;;;;;;;14.50;14.25;;;;;26.94;39.00;100630.47;5054706;28;45706;-85
2022/08/25 06:15:25;;;;;;;;;12.50;11.25;;;;;26.95;39.44;100628.63;5054344;28;45849;-81
2022/08/25 06:17:51;;;;;;;;;13.25;12.25;;;;;26.99;38.71;100629.84;5053244;28;47468;-82
2022/08/25 06:20:20;;;;;;;;;16.25;15.75;;;;;27.00;38.83;100628.78;5052902;28;45693;-85
2022/08/25 06:22:46;;;;;;;;;12.75;12.25;;;;;26.95;39.06;100623.25;5054393;28;45666;-84
2022/08/25 06:25:19;;;;;;;;;11.25;10.75;;;;;27.01;37.75;100630.44;5054173;28;45544;-84
2022/08/25 06:27:45;;;;;;;;;14.00;12.75;;;;;26.98;38.67;100626.34;5053416;28;45854;-81
2022/08/25 06:30:14;;;;;;;;;12.25;12.25;;;;;26.97;38.14;100626.56;5053750;28;45776;-80
2022/08/25 06:32:42;;;;;;;;;16.00;15.00;;;;;26.91;38.06;100622.03;5053711;28;45681;-81
2022/08/25 06:35:11;;;;;;;;;13.25;12.50;;;;;26.96;37.46;100627.59;5053882;28;45767;-83
2022/08/25 06:41:01;;;;;;;;;13.00;12.25;;;;;26.92;36.94;100627.19;5055705;28;45619;-83
2022/08/25 06:43:26;;;;;;;;;11.75;11.50;;;;;26.86;37.07;100625.34;5035397;28;45777;-80
2022/08/25 06:45:52;;;;;;;;;14.00;13.00;;;;;26.88;37.00;100639.44;5053958;28;45484;-84
2022/08/25 06:48:17;;;;;;;;;11.50;11.50;;;;;26.87;37.53;100632.41;5053616;28;46245;-83
2022/08/25 06:50:43;;;;;;;;;10.25;10.00;;;;;26.82;37.07;100628.66;5053306;28;46940;-82
2022/08/25 06:56:30;;;;;;;;;11.25;11.25;;;;;26.79;37.23;100631.78;5056733;28;45632;-81
2022/08/25 06:58:57;;;;;;;;;10.25;10.25;;;;;26.83;36.91;100641.88;5057150;28;46419;-79
2022/08/25 07:01:25;;;;;;;;;12.00;11.25;;;;;26.84;37.11;100645.41;5057865;28;46409;-81
2022/08/25 07:03:53;;;;;;;;;10.25;9.50;;;;;26.80;37.24;100639.63;5038642;28;45673;-79
2022/08/25 07:06:20;;;;;;;;;11.50;11.00;;;;;26.84;37.09;100643.53;5056388;28;45592;-77
2022/08/25 07:12:07;;;;;;;;;8.75;8.75;;;;;26.87;37.30;100644.97;5055949;28;45777;-78
2022/08/25 07:14:34;;;;;;;;;11.25;10.25;;;;;26.88;36.91;100642.13;5055860;28;45600;-77
2022/08/25 07:17:00;;;;;;;;;13.50;11.50;;;;;26.88;36.79;100638.59;5055965;28;45715;-78
2022/08/25 07:19:25;;;;;;;;;12.00;11.00;;;;;26.89;36.89;100640.22;5056215;28;45658;-74
2022/08/25 07:21:52;;;;;;;;;13.50;11.00;;;;;26.91;36.92;100646.22;5055733;28;45599;-75
2022/08/25 07:27:39;;;;;;;;;10.25;10.25;;;;;26.94;36.35;100651.16;5054187;28;45694;-77
2022/08/25 07:30:07;;;;;;;;;10.00;10.00;;;;;26.96;36.81;100652.63;5055847;28;47408;-77
2022/08/25 07:32:32;;;;;;;;;12.00;10.00;;;;;26.93;36.29;100644.16;5055829;28;46581;-76
2022/08/25 07:35:19;;;;;;;;;10.00;9.50;;;;;26.93;35.92;100645.00;5056207;28;45623;-77
2022/08/25 07:37:49;;;;;;;;;10.25;9.00;;;;;26.99;36.17;100651.38;5038018;28;45800;-76
2022/08/25 07:43:36;;;;;;;;;8.25;8.00;;;;;27.06;36.08;100652.16;5056028;28;46006;-75
2022/08/25 07:46:05;;;;;;;;;10.00;10.00;;;;;27.00;36.38;100643.06;5055621;28;45662;-76
2022/08/25 07:48:30;;;;;;;;;10.00;9.25;;;;;27.07;36.11;100643.88;5055867;28;45834;-75
2022/08/25 07:50:56;;;;;;;;;11.50;10.50;;;;;27.10;35.50;100643.41;5055620;28;45631;-76
2022/08/25 07:53:21;;;;;;;;;10.25;9.25;;;;;27.02;35.71;100626.72;5055550;28;46888;-74
2022/08/25 07:55:47;;;;;;;;;10.00;8.75;;;;;27.16;36.32;100647.13;5055831;28;45529;-76
2022/08/25 07:58:12;;;;;;;;;10.00;9.75;;;;;27.20;35.79;100645.66;5055854;28;45764;-75
2022/08/25 08:00:39;;;;;;;;;9.00;8.25;;;;;27.22;36.31;100630.09;5055441;28;46517;-75
2022/08/25 08:03:06;;;;;;;;;10.75;9.00;;;;;27.27;35.83;100632.97;5054014;28;46177;-75
2022/08/25 08:05:33;;;;;;;;;12.00;12.00;;;;;27.33;35.47;100640.19;5055908;28;45859;-74
2022/08/25 08:07:59;;;;;;;;;10.50;10.00;;;;;27.36;35.57;100631.69;5055502;28;45552;-76
2022/08/25 08:13:47;;;;;;;;;11.25;10.00;;;;;27.50;35.28;100637.81;5055023;28;45773;-75
2022/08/25 08:16:15;;;;;;;;;9.00;8.75;;;;;27.54;35.22;100641.72;5054873;28;45744;-76
2022/08/25 08:18:43;;;;;;;;;12.00;10.00;;;;;27.56;34.95;100647.72;5055223;28;45619;-75
2022/08/25 08:21:24;;;;;;;;;12.00;11.00;;;;;27.61;34.75;100647.88;5055166;28;45559;-75
2022/08/25 08:23:52;;;;;;;;;9.50;9.50;;;;;27.64;34.52;100652.00;5055207;28;46105;-76
2022/08/25 08:26:19;;;;;;;;;11.00;10.00;;;;;27.57;34.79;100667.38;5053878;28;45729;-77
2022/08/25 08:28:44;;;;;;;;;10.50;9.75;;;;;27.62;34.42;100689.91;5054954;28;45460;-79
2022/08/25 08:31:10;;;;;;;;;10.25;10.25;;;;;27.59;34.23;100676.88;5055331;28;46524;-74
2022/08/25 08:33:36;;;;;;;;;10.00;8.75;;;;;27.58;34.70;100648.31;5055334;28;46423;-76
2022/08/25 08:36:07;;;;;;;;;12.50;10.50;;;;;27.62;34.69;100663.00;5054371;28;46180;-77
2022/08/25 08:38:34;;;;;;;;;10.00;9.00;;;;;27.62;34.89;100668.38;5054978;28;45466;-76
2022/08/25 08:44:49;;;;;;;;;11.00;10.00;;;;;27.68;34.34;100664.81;5054918;28;45980;-76
2022/08/25 08:47:39;;;;;;;;;10.50;10.00;;;;;27.71;34.15;100650.91;5054716;28;45699;-75
2022/08/25 08:50:40;;;;;;;;;11.75;11.00;;;;;27.75;34.82;100670.13;5055215;28;45718;-75
2022/08/25 08:53:06;;;;;;;;;10.75;10.00;;;;;27.75;34.56;100662.88;5054534;28;47263;-76
2022/08/25 08:55:48;;;;;;;;;11.00;10.50;;;;;27.77;34.72;100670.75;5054815;28;46235;-75
2022/08/25 08:58:25;;;;;;;;;10.00;8.75;;;;;27.79;34.66;100684.81;5054977;28;45648;-76
2022/08/25 09:00:57;;;;;;;;;12.50;11.00;;;;;27.80;34.95;100686.47;5055141;28;45661;-75
2022/08/25 09:03:47;;;;;;;;;10.50;9.75;;;;;27.79;35.12;100679.44;5056068;28;47377;-82
2022/08/25 09:06:44;;;;;;;;;11.50;10.75;;;;;27.75;35.96;100687.09;5012594;28;45731;-84
2022/08/25 09:12:49;;;;;;;;;11.00;10.50;;;;;27.79;36.73;100674.88;5013764;28;45567;-81
2022/08/25 09:15:23;;;;;;;;;11.25;11.25;;;;;27.81;37.08;100677.31;5012009;28;46658;-78
2022/08/25 09:18:35;;;;;;;;;12.00;11.75;;;;;27.82;36.81;100689.75;5012899;28;46465;-83
2022/08/25 09:21:17;;;;;;;;;14.00;13.50;;;;;27.80;37.03;100670.31;5017238;28;45954;-78
2022/08/25 09:23:45;;;;;;;;;11.50;11.25;;;;;27.81;36.92;100666.56;5018156;28;45678;-81
2022/08/25 09:29:49;;;;;;;;;13.00;13.00;;;;;27.71;37.55;100677.81;5010758;28;45863;-80
2022/08/25 09:32:16;;;;;;;;;14.75;14.00;;;;;27.52;38.08;100647.34;5012600;28;45689;-83
2022/08/25 09:34:43;;;;;;;;;13.00;12.00;;;;;27.65;37.89;100683.25;5014347;28;45906;-82
2022/08/25 09:37:09;;;;;;;;;13.25;12.25;;;;;27.67;37.88;100683.88;5015589;28;46870;-83
2022/08/25 09:39:35;;;;;;;;;13.50;12.50;;;;;27.61;37.75;100674.81;5015975;28;46188;-84
2022/08/25 09:42:00;;;;;;;;;13.00;13.00;;;;;27.45;37.40;100651.91;5017083;28;45575;-81
2022/08/25 09:44:45;;;;;;;;;14.00;14.00;;;;;27.63;37.37;100691.56;5016545;28;45849;-82
2022/08/25 09:47:16;;;;;;;;;13.00;12.25;;;;;27.67;37.65;100700.03;5012500;28;45685;-80
2022/08/25 09:49:48;;;;;;;;;14.25;13.50;;;;;27.68;37.06;100685.53;5012585;28;46488;-84
2022/08/25 09:52:41;;;;;;;;;10.75;10.75;;;;;27.64;37.57;100684.31;5012899;28;45646;-82
2022/08/25 09:55:30;;;;;;;;;15.00;14.00;;;;;27.70;37.20;100675.34;5001757;28;46035;-76
2022/08/25 09:57:57;;;;;;;;;14.00;13.25;;;;;27.70;36.98;100681.56;5052167;28;46587;-81
2022/08/25 10:00:32;;;;;;;;;14.00;13.00;;;;;27.65;36.67;100673.31;5056694;28;45933;-80
2022/08/25 10:03:20;;;;;;;;;15.50;12.00;;;;;27.77;36.99;100676.13;5059597;28;45607;-82
2022/08/25 10:05:56;;;;;;;;;13.00;12.25;;;;;27.75;37.20;100678.19;5037375;28;45538;-83
2022/08/25 10:08:42;;;;;;;;;12.75;12.25;;;;;27.73;36.88;100677.63;5054367;28;46420;-80
2022/08/25 10:11:13;;;;;;;;;14.75;13.25;;;;;27.75;37.19;100670.13;5055751;28;45858;-82
2022/08/25 10:13:59;;;;;;;;;13.50;13.00;;;;;27.74;36.48;100660.41;5060698;28;45635;-85
2022/08/25 10:16:30;;;;;;;;;10.00;9.00;;;;;27.81;37.33;100666.56;5063291;28;45595;-87
2022/08/25 10:19:12;;;;;;;;;14.00;13.00;;;;;27.67;37.11;100633.53;5058295;28;46345;-87
2022/08/25 10:21:40;;;;;;;;;13.00;12.25;;;;;27.91;36.87;100664.19;5059049;28;45983;-84
2022/08/25 10:24:10;;;;;;;;;13.75;12.00;;;;;27.96;36.93;100656.28;5062990;28;45571;-86
2022/08/25 10:26:54;;;;;;;;;12.50;11.75;;;;;28.01;36.44;100651.06;5056630;28;45550;-87
2022/08/25 10:29:41;;;;;;;;;12.75;12.75;;;;;28.09;37.19;100639.16;5054681;28;46525;-86
2022/08/25 10:32:21;;;;;;;;;12.25;12.25;;;;;28.13;36.98;100627.72;5056378;28;46412;-86
2022/08/25 10:34:52;;;;;;;;;13.00;12.00;;;;;28.23;35.99;100636.13;5056142;28;45641;-83
2022/08/25 10:37:30;;;;;;;;;13.00;13.00;;;;;28.29;36.58;100643.31;5053996;28;45851;-81
2022/08/25 10:43:30;;;;;;;;;11.75;10.00;;;;;28.27;35.59;100590.69;5053851;28;46041;-78
2022/08/25 10:46:10;;;;;;;;;16.75;12.75;;;;;28.36;35.93;100602.81;5053677;28;45616;-91
2022/08/25 10:49:01;;;;;;;;;11.00;10.50;;;;;28.56;35.69;100616.03;5054599;28;45689;-82
2022/08/25 10:51:45;;;;;;;;;9.50;9.50;;;;;28.60;35.43;100620.78;5053194;28;46502;-81
2022/08/25 10:54:48;;;;;;;;;10.00;9.25;;;;;28.65;35.67;100622.78;5053490;28;46031;-84
2022/08/25 11:00:51;;;;;;;;;11.25;10.50;;;;;28.80;35.10;100628.63;5054465;28;45610;-81
2022/08/25 11:03:38;;;;;;;;;10.75;10.00;;;;;28.85;35.04;100617.16;5046681;28;45865;-79
2022/08/25 11:06:17;;;;;;;;;10.50;10.25;;;;;28.91;34.21;100619.78;5057237;28;46082;-81
2022/08/25 11:08:48;;;;;;;;;10.50;10.25;;;;;28.97;33.88;100626.97;5055516;28;45602;-80
2022/08/25 11:11:28;;;;;;;;;10.75;9.25;;;;;28.95;33.83;100604.78;5053846;28;45669;-83
2022/08/25 11:14:20;;;;;;;;;9.25;9.00;;;;;29.01;33.57;100605.72;5034910;28;47761;-81
2022/08/25 11:17:05;;;;;;;;;10.00;10.00;;;;;29.18;33.18;100622.91;5052661;28;45873;-77
2022/08/25 11:19:44;;;;;;;;;10.25;10.00;;;;;29.24;32.75;100613.06;5052803;28;45582;-80
2022/08/25 11:22:18;;;;;;;;;12.00;11.00;;;;;29.29;33.45;100610.50;5052969;28;45645;-77
2022/08/25 11:24:55;;;;;;;;;11.00;11.00;;;;;29.38;33.50;100619.94;5053015;28;45687;-79
2022/08/25 11:27:22;;;;;;;;;9.50;9.25;;;;;29.34;32.94;100605.25;5052392;28;45949;-78
2022/08/25 11:30:01;;;;;;;;;13.25;10.75;;;;;29.32;32.53;100591.16;5050665;28;45669;-84
2022/08/25 11:32:32;;;;;;;;;12.25;11.50;;;;;29.47;32.27;100600.47;5053301;28;45606;-81
2022/08/25 11:35:00;;;;;;;;;10.50;10.25;;;;;29.61;32.04;100620.81;5053280;28;46436;-78
2022/08/25 11:37:27;;;;;;;;;11.50;11.50;;;;;29.70;32.02;100615.88;5053770;28;45840;-78
2022/08/25 11:43:51;;;;;;;;;12.00;12.00;;;;;29.86;32.18;100630.56;4994765;28;45734;-81
2022/08/25 11:46:25;;;;;;;;;11.25;11.25;;;;;29.92;31.87;100626.94;4995203;28;46855;-82
2022/08/25 11:49:04;;;;;;;;;15.00;13.75;;;;;29.93;31.75;100618.63;4995904;28;45999;-85
2022/08/25 11:51:32;;;;;;;;;11.75;10.25;;;;;30.07;31.62;100618.38;4999301;28;45811;-85
2022/08/25 11:54:23;;;;;;;;;12.00;11.50;;;;;30.13;31.20;100617.41;4996362;28;45748;-85
2022/08/25 12:00:19;;;;;;;;;10.75;10.75;;;;;30.23;31.02;100614.94;4994566;28;45739;-85
2022/08/25 12:02:46;;;;;;;;;12.00;12.00;;;;;30.23;31.19;100612.25;4994601;28;45722;-83
2022/08/25 12:05:17;;;;;;;;;11.50;11.50;;;;;30.32;31.18;100610.81;4994741;28;45947;-86
2022/08/25 12:07:46;;;;;;;;;11.25;10.75;;;;;30.38;30.84;100604.44;4978764;28;46483;-87
2022/08/25 12:10:17;;;;;;;;;10.25;10.00;;;;;30.45;30.94;100605.13;4995239;28;46065;-85
2022/08/25 12:16:05;;;;;;;;;12.75;12.50;;;;;30.61;31.20;100598.19;5057188;28;45526;-84
2022/08/25 12:18:39;;;;;;;;;10.50;10.50;;;;;30.73;30.86;100607.06;5057535;28;45517;-86
2022/08/25 12:21:04;;;;;;;;;10.75;10.25;;;;;30.80;31.12;100610.44;5061773;28;46442;-86
2022/08/25 12:24:04;;;;;;;;;10.25;10.25;;;;;30.88;31.00;100607.34;5060064;28;45503;-85
2022/08/25 12:26:40;;;;;;;;;11.75;10.75;;;;;30.91;31.15;100598.75;5060396;28;45597;-85
2022/08/25 12:29:12;;;;;;;;;12.00;11.00;;;;;31.00;30.94;100600.00;5042486;28;47392;-83
2022/08/25 12:31:56;;;;;;;;;10.00;10.00;;;;;31.08;31.15;100604.25;5057977;28;45625;-86
2022/08/25 12:34:37;;;;;;;;;11.00;11.00;;;;;31.12;30.58;100605.38;5058613;28;45667;-87
2022/08/25 12:37:17;;;;;;;;;10.00;9.25;;;;;31.19;31.28;100600.66;5039337;28;45721;-85
2022/08/25 12:39:48;;;;;;;;;13.00;12.25;;;;;31.28;31.18;100601.88;5039314;28;45634;-85
2022/08/25 12:42:30;;;;;;;;;10.00;10.00;;;;;31.38;30.95;100602.03;5057038;28;45810;-83
2022/08/25 12:45:16;;;;;;;;;11.75;9.75;;;;;31.48;31.71;100607.63;5057369;28;45593;-86
2022/08/25 12:47:46;;;;;;;;;10.75;9.75;;;;;31.54;31.68;100606.63;5056809;28;45524;-84
2022/08/25 12:50:42;;;;;;;;;9.00;9.00;;;;;31.63;31.75;100607.09;5040816;28;48334;-86
2022/08/25 12:53:32;;;;;;;;;8.75;8.00;;;;;31.67;32.21;100600.09;4996187;28;45980;-88